Centreville, Alabama
Current Conditions -  °F | °C
As of 8:53 PM on Friday 28 Nov 2014 (Local Time) from KEET Reporting Station
Clear Clear  
Wind Chill: 39°   Ceiling: Unl
Heat Index: 39°   Visibility: 10mi
Dew Point: 27°   Wind: 0mph
Humidity: 62%   Direction: NA
Pressure: 30.27"   Gusts: NA
Location:  32.94°N, 87.14°W
Report Text: KEET 290253Z AUTO 00000KT 10SM CLR 04/M03 A3027 RMK AO2 SLP251 T00391028 58006
Loading
Personal Weather Stations






























Interactive Weather Map New forecast layout! Learn more

10-Day Weather Forecast

Advertisements
Track Severe Weather on mobile